Startpagina
METAR-TAF:

METAR-TAF

Vliegvelden :

Maracaibo, Venezuela

breedte: 10-34N, lengte: 071-44W, hoogte: 66 m

Actueel weer

Dit bericht is 52 minuten geleden gemaakt, om 18:02 UTC
Wind 3 kt uit het zuiden
Temperatuur 31°C
Vochtigheid 66%
Druk 1010 hPa

METAR: SVMC 191802Z AUTO 18003KT NCD 31/24 Q1010

Tijdstip: 14:54 (18:54 UTC)

Verwachting

Dit bericht is 2 uur en het 54 minuten geleden gemaakt, om 16:00 UTC
Verwachting geldig van 19 om 18 UTC tot 20 om 18 UTC
Wind 5 kt uit het zuidzuidwesten
Zicht 10 km of meer
Verspreide wolken op 1600 ft
Wijzigt naar
van 19 om 18 UTC tot 19 om 22 UTC
Wind 8 kt uit het zuidzuidoosten
Zicht 10 km of meer
Weinig wolken op 1600 ft

TAF: SVMC 191600Z 1918/2018 21005KT 9999 SCT016 TX34/1919Z TN24/1807Z BECMG 1918/1922 15008KT 9999 FEW016

Waarnemingen en weersverwachtingen van meer dan 4000 vliegvelden (METAR en TAF).

De beschikbare stations zijn de gele en rode punten op de kaart.

Ga met uw muis naar het station om de naam te zien.

Klik dan om waarnemingen en weersverwachtingen te zien.

kaart wijzigen: klik op de groene knoppen met een zwart kruis om in te zoomen, op de groene knop met een streepje om uit te zoomen of op de groene pijlen voor aangrenzende kaarten.


METAR-TAF: